sensor_id;sensor_type;location;lat;lon;timestamp;P1;durP1;ratioP1;P2;durP2;ratioP2
20391;SDS011;10355;53.688;10.078;2023-02-28T00:00:08;7.57;;;4.45;;
20391;SDS011;10355;53.688;10.078;2023-02-28T00:02:51;9.48;;;4.70;;
20391;SDS011;10355;53.688;10.078;2023-02-28T00:05:34;8.32;;;4.70;;
20391;SDS011;10355;53.688;10.078;2023-02-28T00:08:17;8.52;;;4.40;;
20391;SDS011;10355;53.688;10.078;2023-02-28T00:11:10;9.18;;;4.93;;
20391;SDS011;10355;53.688;10.078;2023-02-28T00:13:55;8.75;;;5.07;;
20391;SDS011;10355;53.688;10.078;2023-02-28T00:16:38;10.00;;;4.90;;
20391;SDS011;10355;53.688;10.078;2023-02-28T00:19:21;9.75;;;5.25;;
20391;SDS011;10355;53.688;10.078;2023-02-28T00:22:04;11.07;;;5.25;;
20391;SDS011;10355;53.688;10.078;2023-02-28T00:24:47;10.27;;;4.32;;
20391;SDS011;10355;53.688;10.078;2023-02-28T00:27:29;9.32;;;5.05;;
20391;SDS011;10355;53.688;10.078;2023-02-28T00:30:14;8.65;;;4.50;;
20391;SDS011;10355;53.688;10.078;2023-02-28T00:32:57;8.90;;;4.20;;
20391;SDS011;10355;53.688;10.078;2023-02-28T00:35:40;10.57;;;4.85;;
20391;SDS011;10355;53.688;10.078;2023-02-28T00:38:23;8.25;;;4.45;;
20391;SDS011;10355;53.688;10.078;2023-02-28T00:41:07;7.65;;;4.22;;
20391;SDS011;10355;53.688;10.078;2023-02-28T00:43:50;8.23;;;4.45;;
20391;SDS011;10355;53.688;10.078;2023-02-28T00:46:34;11.50;;;5.28;;
20391;SDS011;10355;53.688;10.078;2023-02-28T00:49:17;11.82;;;5.88;;
20391;SDS011;10355;53.688;10.078;2023-02-28T00:52:00;11.30;;;5.70;;
20391;SDS011;10355;53.688;10.078;2023-02-28T00:54:42;9.25;;;5.50;;
20391;SDS011;10355;53.688;10.078;2023-02-28T00:57:25;9.60;;;4.93;;
20391;SDS011;10355;53.688;10.078;2023-02-28T01:00:09;9.98;;;5.00;;
20391;SDS011;10355;53.688;10.078;2023-02-28T01:02:53;7.53;;;4.13;;
20391;SDS011;10355;53.688;10.078;2023-02-28T01:05:36;6.68;;;4.47;;
20391;SDS011;10355;53.688;10.078;2023-02-28T01:08:19;9.93;;;4.10;;
20391;SDS011;10355;53.688;10.078;2023-02-28T01:11:07;11.52;;;3.80;;
20391;SDS011;10355;53.688;10.078;2023-02-28T01:13:49;11.38;;;4.38;;
20391;SDS011;10355;53.688;10.078;2023-02-28T01:16:32;8.40;;;3.65;;
20391;SDS011;10355;53.688;10.078;2023-02-28T01:19:17;6.97;;;3.63;;
20391;SDS011;10355;53.688;10.078;2023-02-28T01:22:01;6.03;;;3.55;;
20391;SDS011;10355;53.688;10.078;2023-02-28T01:24:44;6.90;;;3.58;;
20391;SDS011;10355;53.688;10.078;2023-02-28T01:27:28;6.53;;;3.53;;
20391;SDS011;10355;53.688;10.078;2023-02-28T01:30:12;5.97;;;3.65;;
20391;SDS011;10355;53.688;10.078;2023-02-28T01:32:55;7.05;;;3.65;;
20391;SDS011;10355;53.688;10.078;2023-02-28T01:35:40;6.78;;;3.58;;
20391;SDS011;10355;53.688;10.078;2023-02-28T01:38:23;7.10;;;3.80;;
20391;SDS011;10355;53.688;10.078;2023-02-28T01:41:08;10.00;;;4.57;;
20391;SDS011;10355;53.688;10.078;2023-02-28T01:43:56;10.48;;;4.25;;
20391;SDS011;10355;53.688;10.078;2023-02-28T01:46:39;7.95;;;4.53;;
20391;SDS011;10355;53.688;10.078;2023-02-28T01:49:22;7.50;;;3.97;;
20391;SDS011;10355;53.688;10.078;2023-02-28T01:52:08;9.00;;;4.50;;
20391;SDS011;10355;53.688;10.078;2023-02-28T01:55:00;6.53;;;4.15;;
20391;SDS011;10355;53.688;10.078;2023-02-28T01:57:45;7.80;;;4.25;;
20391;SDS011;10355;53.688;10.078;2023-02-28T02:00:29;9.30;;;4.45;;
20391;SDS011;10355;53.688;10.078;2023-02-28T02:03:12;8.07;;;4.10;;
20391;SDS011;10355;53.688;10.078;2023-02-28T02:05:59;7.65;;;4.18;;
20391;SDS011;10355;53.688;10.078;2023-02-28T02:08:43;7.25;;;4.60;;
20391;SDS011;10355;53.688;10.078;2023-02-28T02:11:26;8.38;;;4.38;;
20391;SDS011;10355;53.688;10.078;2023-02-28T02:14:15;9.25;;;4.50;;
20391;SDS011;10355;53.688;10.078;2023-02-28T02:17:13;6.68;;;4.05;;
20391;SDS011;10355;53.688;10.078;2023-02-28T02:23:06;8.00;;;3.78;;
20391;SDS011;10355;53.688;10.078;2023-02-28T02:25:53;7.55;;;3.88;;
20391;SDS011;10355;53.688;10.078;2023-02-28T02:31:50;7.13;;;4.22;;
20391;SDS011;10355;53.688;10.078;2023-02-28T02:34:39;7.72;;;4.40;;
20391;SDS011;10355;53.688;10.078;2023-02-28T02:37:25;7.25;;;4.38;;
20391;SDS011;10355;53.688;10.078;2023-02-28T02:40:11;7.50;;;4.13;;
20391;SDS011;10355;53.688;10.078;2023-02-28T02:42:56;9.38;;;4.25;;
20391;SDS011;10355;53.688;10.078;2023-02-28T02:45:43;9.50;;;4.93;;
20391;SDS011;10355;53.688;10.078;2023-02-28T02:48:29;8.65;;;4.50;;
20391;SDS011;10355;53.688;10.078;2023-02-28T02:51:14;7.70;;;4.82;;
20391;SDS011;10355;53.688;10.078;2023-02-28T02:53:59;8.27;;;3.53;;
20391;SDS011;10355;53.688;10.078;2023-02-28T02:56:45;6.78;;;3.92;;
20391;SDS011;10355;53.688;10.078;2023-02-28T02:59:29;6.43;;;3.00;;
20391;SDS011;10355;53.688;10.078;2023-02-28T03:02:12;6.95;;;3.50;;
20391;SDS011;10355;53.688;10.078;2023-02-28T03:04:58;7.30;;;3.60;;
20391;SDS011;10355;53.688;10.078;2023-02-28T03:07:43;6.15;;;3.63;;
20391;SDS011;10355;53.688;10.078;2023-02-28T03:10:31;6.97;;;3.60;;
20391;SDS011;10355;53.688;10.078;2023-02-28T03:13:19;5.68;;;3.42;;
20391;SDS011;10355;53.688;10.078;2023-02-28T03:16:10;5.30;;;3.45;;
20391;SDS011;10355;53.688;10.078;2023-02-28T03:18:58;7.07;;;3.05;;
20391;SDS011;10355;53.688;10.078;2023-02-28T03:21:49;4.88;;;2.88;;
20391;SDS011;10355;53.688;10.078;2023-02-28T03:24:37;4.35;;;2.80;;
20391;SDS011;10355;53.688;10.078;2023-02-28T03:27:24;6.93;;;2.72;;
20391;SDS011;10355;53.688;10.078;2023-02-28T03:30:10;4.43;;;2.85;;
20391;SDS011;10355;53.688;10.078;2023-02-28T03:32:54;4.55;;;2.95;;
20391;SDS011;10355;53.688;10.078;2023-02-28T03:35:39;5.32;;;3.28;;
20391;SDS011;10355;53.688;10.078;2023-02-28T03:38:24;6.82;;;3.58;;
20391;SDS011;10355;53.688;10.078;2023-02-28T03:41:11;6.72;;;3.70;;
20391;SDS011;10355;53.688;10.078;2023-02-28T03:43:56;5.93;;;3.60;;
20391;SDS011;10355;53.688;10.078;2023-02-28T03:46:41;5.60;;;3.15;;
20391;SDS011;10355;53.688;10.078;2023-02-28T03:49:26;5.25;;;3.13;;
20391;SDS011;10355;53.688;10.078;2023-02-28T03:52:10;7.47;;;3.20;;
20391;SDS011;10355;53.688;10.078;2023-02-28T03:54:54;6.40;;;3.45;;
20391;SDS011;10355;53.688;10.078;2023-02-28T03:57:40;5.20;;;2.90;;
20391;SDS011;10355;53.688;10.078;2023-02-28T04:00:27;7.82;;;3.15;;
20391;SDS011;10355;53.688;10.078;2023-02-28T04:03:10;6.22;;;3.10;;
20391;SDS011;10355;53.688;10.078;2023-02-28T04:05:53;5.97;;;3.20;;
20391;SDS011;10355;53.688;10.078;2023-02-28T04:08:36;7.35;;;3.25;;
20391;SDS011;10355;53.688;10.078;2023-02-28T04:11:21;8.05;;;3.38;;
20391;SDS011;10355;53.688;10.078;2023-02-28T04:14:06;9.40;;;3.17;;
20391;SDS011;10355;53.688;10.078;2023-02-28T04:16:49;5.00;;;2.63;;
20391;SDS011;10355;53.688;10.078;2023-02-28T04:19:32;5.85;;;2.45;;
20391;SDS011;10355;53.688;10.078;2023-02-28T04:22:15;5.78;;;2.70;;
20391;SDS011;10355;53.688;10.078;2023-02-28T04:24:58;4.28;;;2.42;;
20391;SDS011;10355;53.688;10.078;2023-02-28T04:27:41;6.53;;;2.80;;
20391;SDS011;10355;53.688;10.078;2023-02-28T04:30:27;8.60;;;2.85;;
20391;SDS011;10355;53.688;10.078;2023-02-28T04:33:10;4.55;;;2.50;;
20391;SDS011;10355;53.688;10.078;2023-02-28T04:36:00;4.43;;;2.20;;
20391;SDS011;10355;53.688;10.078;2023-02-28T04:38:44;4.75;;;2.17;;
20391;SDS011;10355;53.688;10.078;2023-02-28T04:41:27;5.78;;;2.53;;
20391;SDS011;10355;53.688;10.078;2023-02-28T04:44:13;6.38;;;2.60;;
20391;SDS011;10355;53.688;10.078;2023-02-28T04:46:57;5.85;;;2.90;;
20391;SDS011;10355;53.688;10.078;2023-02-28T04:49:39;5.35;;;2.42;;
20391;SDS011;10355;53.688;10.078;2023-02-28T04:52:22;5.60;;;2.42;;
20391;SDS011;10355;53.688;10.078;2023-02-28T04:55:05;3.83;;;2.55;;
20391;SDS011;10355;53.688;10.078;2023-02-28T04:57:48;5.22;;;2.60;;
20391;SDS011;10355;53.688;10.078;2023-02-28T05:00:30;4.32;;;2.28;;
20391;SDS011;10355;53.688;10.078;2023-02-28T05:03:14;4.40;;;2.50;;
20391;SDS011;10355;53.688;10.078;2023-02-28T05:05:57;5.15;;;2.40;;
20391;SDS011;10355;53.688;10.078;2023-02-28T05:08:40;4.07;;;2.55;;
20391;SDS011;10355;53.688;10.078;2023-02-28T05:11:23;6.18;;;3.10;;
20391;SDS011;10355;53.688;10.078;2023-02-28T05:14:09;7.45;;;3.35;;
20391;SDS011;10355;53.688;10.078;2023-02-28T05:16:52;5.20;;;3.03;;
20391;SDS011;10355;53.688;10.078;2023-02-28T05:19:36;7.07;;;3.33;;
20391;SDS011;10355;53.688;10.078;2023-02-28T05:22:19;7.10;;;3.10;;
20391;SDS011;10355;53.688;10.078;2023-02-28T05:25:01;6.32;;;2.97;;
20391;SDS011;10355;53.688;10.078;2023-02-28T05:27:44;5.07;;;2.80;;
20391;SDS011;10355;53.688;10.078;2023-02-28T05:30:27;6.07;;;3.22;;
20391;SDS011;10355;53.688;10.078;2023-02-28T05:33:09;5.72;;;2.95;;
20391;SDS011;10355;53.688;10.078;2023-02-28T05:35:54;4.57;;;2.60;;
20391;SDS011;10355;53.688;10.078;2023-02-28T05:38:37;7.22;;;2.67;;
20391;SDS011;10355;53.688;10.078;2023-02-28T05:41:19;6.05;;;2.78;;
20391;SDS011;10355;53.688;10.078;2023-02-28T05:44:02;6.32;;;2.75;;
20391;SDS011;10355;53.688;10.078;2023-02-28T05:46:45;3.95;;;2.55;;
20391;SDS011;10355;53.688;10.078;2023-02-28T05:49:27;3.85;;;2.50;;
20391;SDS011;10355;53.688;10.078;2023-02-28T05:52:11;5.18;;;2.60;;
20391;SDS011;10355;53.688;10.078;2023-02-28T05:54:54;4.88;;;2.60;;
20391;SDS011;10355;53.688;10.078;2023-02-28T05:57:36;7.38;;;2.45;;
20391;SDS011;10355;53.688;10.078;2023-02-28T06:00:19;4.13;;;2.25;;
20391;SDS011;10355;53.688;10.078;2023-02-28T06:03:02;5.40;;;2.70;;
20391;SDS011;10355;53.688;10.078;2023-02-28T06:05:45;5.05;;;2.53;;
20391;SDS011;10355;53.688;10.078;2023-02-28T06:08:29;6.38;;;3.00;;
20391;SDS011;10355;53.688;10.078;2023-02-28T06:11:11;4.57;;;2.85;;
20391;SDS011;10355;53.688;10.078;2023-02-28T06:13:54;4.38;;;2.53;;
20391;SDS011;10355;53.688;10.078;2023-02-28T06:16:38;5.80;;;2.60;;
20391;SDS011;10355;53.688;10.078;2023-02-28T06:19:20;4.47;;;2.72;;
20391;SDS011;10355;53.688;10.078;2023-02-28T06:22:03;8.88;;;2.67;;
20391;SDS011;10355;53.688;10.078;2023-02-28T06:24:48;5.93;;;2.63;;
20391;SDS011;10355;53.688;10.078;2023-02-28T06:27:30;6.30;;;2.92;;
20391;SDS011;10355;53.688;10.078;2023-02-28T06:30:13;5.65;;;3.35;;
20391;SDS011;10355;53.688;10.078;2023-02-28T06:32:56;5.28;;;3.00;;
20391;SDS011;10355;53.688;10.078;2023-02-28T06:35:38;5.65;;;3.10;;
20391;SDS011;10355;53.688;10.078;2023-02-28T06:38:21;6.00;;;3.10;;
20391;SDS011;10355;53.688;10.078;2023-02-28T06:41:05;5.22;;;2.83;;
20391;SDS011;10355;53.688;10.078;2023-02-28T06:43:48;5.95;;;2.92;;
20391;SDS011;10355;53.688;10.078;2023-02-28T06:46:31;9.20;;;3.40;;
20391;SDS011;10355;53.688;10.078;2023-02-28T06:49:14;4.70;;;3.10;;
20391;SDS011;10355;53.688;10.078;2023-02-28T06:51:57;5.90;;;2.90;;
20391;SDS011;10355;53.688;10.078;2023-02-28T06:54:39;6.10;;;3.00;;
20391;SDS011;10355;53.688;10.078;2023-02-28T06:57:23;5.00;;;2.90;;
20391;SDS011;10355;53.688;10.078;2023-02-28T07:00:07;7.80;;;3.30;;
20391;SDS011;10355;53.688;10.078;2023-02-28T07:02:50;5.78;;;3.15;;
20391;SDS011;10355;53.688;10.078;2023-02-28T07:05:34;5.75;;;3.30;;
20391;SDS011;10355;53.688;10.078;2023-02-28T07:08:16;7.43;;;2.78;;
20391;SDS011;10355;53.688;10.078;2023-02-28T07:10:59;5.00;;;2.92;;
20391;SDS011;10355;53.688;10.078;2023-02-28T07:13:44;5.85;;;2.80;;
20391;SDS011;10355;53.688;10.078;2023-02-28T07:16:28;5.68;;;3.20;;
20391;SDS011;10355;53.688;10.078;2023-02-28T07:19:11;6.45;;;3.50;;
20391;SDS011;10355;53.688;10.078;2023-02-28T07:21:54;7.05;;;3.47;;
20391;SDS011;10355;53.688;10.078;2023-02-28T07:24:36;5.93;;;3.47;;
20391;SDS011;10355;53.688;10.078;2023-02-28T07:27:19;6.55;;;3.40;;
20391;SDS011;10355;53.688;10.078;2023-02-28T07:30:09;5.10;;;3.10;;
20391;SDS011;10355;53.688;10.078;2023-02-28T07:32:52;6.10;;;3.17;;
20391;SDS011;10355;53.688;10.078;2023-02-28T07:35:36;6.57;;;3.42;;
20391;SDS011;10355;53.688;10.078;2023-02-28T07:38:18;5.65;;;3.25;;
20391;SDS011;10355;53.688;10.078;2023-02-28T07:41:01;5.35;;;3.33;;
20391;SDS011;10355;53.688;10.078;2023-02-28T07:43:45;7.68;;;3.58;;
20391;SDS011;10355;53.688;10.078;2023-02-28T07:46:29;6.50;;;3.35;;
20391;SDS011;10355;53.688;10.078;2023-02-28T07:49:17;4.95;;;3.50;;
20391;SDS011;10355;53.688;10.078;2023-02-28T07:52:00;5.15;;;3.58;;
20391;SDS011;10355;53.688;10.078;2023-02-28T07:54:42;8.63;;;3.80;;
20391;SDS011;10355;53.688;10.078;2023-02-28T07:57:25;5.80;;;3.65;;
20391;SDS011;10355;53.688;10.078;2023-02-28T08:00:08;5.90;;;3.30;;
20391;SDS011;10355;53.688;10.078;2023-02-28T08:02:53;6.60;;;3.47;;
20391;SDS011;10355;53.688;10.078;2023-02-28T08:05:37;5.72;;;3.25;;
20391;SDS011;10355;53.688;10.078;2023-02-28T08:08:21;6.07;;;3.45;;
20391;SDS011;10355;53.688;10.078;2023-02-28T08:11:03;6.63;;;3.88;;
20391;SDS011;10355;53.688;10.078;2023-02-28T08:13:46;6.78;;;3.70;;
20391;SDS011;10355;53.688;10.078;2023-02-28T08:16:29;7.50;;;3.22;;
20391;SDS011;10355;53.688;10.078;2023-02-28T08:19:13;5.20;;;3.17;;
20391;SDS011;10355;53.688;10.078;2023-02-28T08:21:56;7.40;;;3.25;;
20391;SDS011;10355;53.688;10.078;2023-02-28T08:24:38;6.75;;;3.40;;
20391;SDS011;10355;53.688;10.078;2023-02-28T08:27:23;7.15;;;3.20;;
20391;SDS011;10355;53.688;10.078;2023-02-28T08:30:06;6.35;;;3.28;;
20391;SDS011;10355;53.688;10.078;2023-02-28T08:32:49;5.65;;;2.90;;
20391;SDS011;10355;53.688;10.078;2023-02-28T08:35:33;6.60;;;3.00;;
20391;SDS011;10355;53.688;10.078;2023-02-28T08:38:17;7.80;;;3.17;;
20391;SDS011;10355;53.688;10.078;2023-02-28T08:41:01;7.10;;;3.35;;
20391;SDS011;10355;53.688;10.078;2023-02-28T08:43:44;6.13;;;3.03;;
20391;SDS011;10355;53.688;10.078;2023-02-28T08:46:27;7.88;;;2.95;;
20391;SDS011;10355;53.688;10.078;2023-02-28T08:49:09;5.47;;;3.17;;
20391;SDS011;10355;53.688;10.078;2023-02-28T08:51:54;6.85;;;3.05;;
20391;SDS011;10355;53.688;10.078;2023-02-28T08:54:38;6.68;;;2.85;;
20391;SDS011;10355;53.688;10.078;2023-02-28T08:57:21;4.03;;;2.40;;
20391;SDS011;10355;53.688;10.078;2023-02-28T09:00:04;5.38;;;2.80;;
20391;SDS011;10355;53.688;10.078;2023-02-28T09:02:47;5.07;;;2.33;;
20391;SDS011;10355;53.688;10.078;2023-02-28T09:05:29;5.78;;;2.35;;
20391;SDS011;10355;53.688;10.078;2023-02-28T09:08:14;5.03;;;2.03;;
20391;SDS011;10355;53.688;10.078;2023-02-28T09:10:56;2.70;;;1.95;;
20391;SDS011;10355;53.688;10.078;2023-02-28T09:13:41;3.30;;;2.08;;
20391;SDS011;10355;53.688;10.078;2023-02-28T09:16:23;3.00;;;1.80;;
20391;SDS011;10355;53.688;10.078;2023-02-28T09:19:06;2.60;;;1.67;;
20391;SDS011;10355;53.688;10.078;2023-02-28T09:21:49;5.72;;;1.67;;
20391;SDS011;10355;53.688;10.078;2023-02-28T09:24:33;1.98;;;1.20;;
20391;SDS011;10355;53.688;10.078;2023-02-28T09:27:15;2.28;;;1.42;;
20391;SDS011;10355;53.688;10.078;2023-02-28T09:29:58;3.45;;;1.60;;
20391;SDS011;10355;53.688;10.078;2023-02-28T09:32:41;3.25;;;1.60;;
20391;SDS011;10355;53.688;10.078;2023-02-28T09:35:23;2.15;;;1.35;;
20391;SDS011;10355;53.688;10.078;2023-02-28T09:38:08;3.55;;;1.75;;
20391;SDS011;10355;53.688;10.078;2023-02-28T09:40:53;3.00;;;1.40;;
20391;SDS011;10355;53.688;10.078;2023-02-28T09:43:37;2.97;;;1.30;;
20391;SDS011;10355;53.688;10.078;2023-02-28T09:46:25;3.58;;;1.38;;
20391;SDS011;10355;53.688;10.078;2023-02-28T09:49:11;2.75;;;1.33;;
20391;SDS011;10355;53.688;10.078;2023-02-28T09:51:55;3.53;;;1.52;;
20391;SDS011;10355;53.688;10.078;2023-02-28T09:54:40;2.00;;;1.38;;
20391;SDS011;10355;53.688;10.078;2023-02-28T09:57:31;3.30;;;1.60;;
20391;SDS011;10355;53.688;10.078;2023-02-28T10:00:15;2.22;;;1.50;;
20391;SDS011;10355;53.688;10.078;2023-02-28T10:03:11;7.68;;;1.70;;
20391;SDS011;10355;53.688;10.078;2023-02-28T10:06:00;2.22;;;1.60;;
20391;SDS011;10355;53.688;10.078;2023-02-28T10:08:50;3.10;;;1.50;;
20391;SDS011;10355;53.688;10.078;2023-02-28T10:11:35;3.40;;;1.55;;
20391;SDS011;10355;53.688;10.078;2023-02-28T10:14:21;3.97;;;1.20;;
20391;SDS011;10355;53.688;10.078;2023-02-28T10:17:06;4.25;;;1.42;;
20391;SDS011;10355;53.688;10.078;2023-02-28T10:19:54;3.28;;;1.60;;
20391;SDS011;10355;53.688;10.078;2023-02-28T10:22:40;4.40;;;1.38;;
20391;SDS011;10355;53.688;10.078;2023-02-28T10:25:27;2.33;;;1.10;;
20391;SDS011;10355;53.688;10.078;2023-02-28T10:28:11;1.88;;;1.23;;
20391;SDS011;10355;53.688;10.078;2023-02-28T10:30:55;2.35;;;1.25;;
20391;SDS011;10355;53.688;10.078;2023-02-28T10:33:39;2.05;;;1.20;;
20391;SDS011;10355;53.688;10.078;2023-02-28T10:36:22;1.85;;;1.35;;
20391;SDS011;10355;53.688;10.078;2023-02-28T10:42:02;3.30;;;1.40;;
20391;SDS011;10355;53.688;10.078;2023-02-28T10:44:45;3.17;;;1.55;;
20391;SDS011;10355;53.688;10.078;2023-02-28T10:47:29;2.13;;;1.30;;
20391;SDS011;10355;53.688;10.078;2023-02-28T10:50:26;5.22;;;1.40;;
20391;SDS011;10355;53.688;10.078;2023-02-28T10:53:24;5.03;;;1.58;;
20391;SDS011;10355;53.688;10.078;2023-02-28T10:56:14;3.58;;;1.58;;
20391;SDS011;10355;53.688;10.078;2023-02-28T10:58:58;2.83;;;1.58;;
20391;SDS011;10355;53.688;10.078;2023-02-28T11:01:43;1.85;;;1.30;;
20391;SDS011;10355;53.688;10.078;2023-02-28T11:04:34;4.25;;;1.42;;
20391;SDS011;10355;53.688;10.078;2023-02-28T11:07:19;3.30;;;1.60;;
20391;SDS011;10355;53.688;10.078;2023-02-28T11:10:06;4.15;;;1.20;;
20391;SDS011;10355;53.688;10.078;2023-02-28T11:12:50;2.47;;;1.30;;
20391;SDS011;10355;53.688;10.078;2023-02-28T11:15:37;3.28;;;1.27;;
20391;SDS011;10355;53.688;10.078;2023-02-28T11:18:21;2.00;;;1.35;;
20391;SDS011;10355;53.688;10.078;2023-02-28T11:21:06;2.58;;;1.50;;
20391;SDS011;10355;53.688;10.078;2023-02-28T11:23:50;2.30;;;1.40;;
20391;SDS011;10355;53.688;10.078;2023-02-28T11:26:37;1.83;;;1.20;;
20391;SDS011;10355;53.688;10.078;2023-02-28T11:29:20;1.95;;;1.15;;
20391;SDS011;10355;53.688;10.078;2023-02-28T11:32:05;3.03;;;1.30;;
20391;SDS011;10355;53.688;10.078;2023-02-28T11:35:00;2.50;;;1.38;;
20391;SDS011;10355;53.688;10.078;2023-02-28T11:37:44;2.35;;;1.00;;
20391;SDS011;10355;53.688;10.078;2023-02-28T11:40:30;2.05;;;1.25;;
20391;SDS011;10355;53.688;10.078;2023-02-28T11:43:18;2.03;;;1.10;;
20391;SDS011;10355;53.688;10.078;2023-02-28T11:46:07;2.72;;;1.50;;
20391;SDS011;10355;53.688;10.078;2023-02-28T11:48:58;2.65;;;1.10;;
20391;SDS011;10355;53.688;10.078;2023-02-28T11:51:47;2.10;;;1.30;;
20391;SDS011;10355;53.688;10.078;2023-02-28T11:54:35;2.70;;;1.48;;
20391;SDS011;10355;53.688;10.078;2023-02-28T11:57:22;2.92;;;1.10;;
20391;SDS011;10355;53.688;10.078;2023-02-28T12:00:14;3.60;;;1.10;;
20391;SDS011;10355;53.688;10.078;2023-02-28T12:03:00;3.13;;;1.88;;
20391;SDS011;10355;53.688;10.078;2023-02-28T12:05:45;1.52;;;1.00;;
20391;SDS011;10355;53.688;10.078;2023-02-28T12:08:33;2.03;;;1.20;;
20391;SDS011;10355;53.688;10.078;2023-02-28T12:11:27;3.35;;;1.20;;
20391;SDS011;10355;53.688;10.078;2023-02-28T12:17:13;1.33;;;1.23;;
20391;SDS011;10355;53.688;10.078;2023-02-28T12:19:59;2.15;;;1.20;;
20391;SDS011;10355;53.688;10.078;2023-02-28T12:22:46;1.88;;;1.20;;
20391;SDS011;10355;53.688;10.078;2023-02-28T12:25:43;3.90;;;1.45;;
20391;SDS011;10355;53.688;10.078;2023-02-28T12:28:34;1.92;;;1.10;;
20391;SDS011;10355;53.688;10.078;2023-02-28T12:31:18;3.33;;;1.30;;
20391;SDS011;10355;53.688;10.078;2023-02-28T12:34:04;4.40;;;1.40;;
20391;SDS011;10355;53.688;10.078;2023-02-28T12:36:48;2.20;;;1.25;;
20391;SDS011;10355;53.688;10.078;2023-02-28T12:39:33;2.30;;;1.40;;
20391;SDS011;10355;53.688;10.078;2023-02-28T12:42:31;4.20;;;1.23;;
20391;SDS011;10355;53.688;10.078;2023-02-28T12:45:18;1.80;;;1.48;;
20391;SDS011;10355;53.688;10.078;2023-02-28T12:48:03;2.58;;;1.20;;
20391;SDS011;10355;53.688;10.078;2023-02-28T12:50:47;2.20;;;1.30;;
20391;SDS011;10355;53.688;10.078;2023-02-28T12:53:31;1.63;;;1.17;;
20391;SDS011;10355;53.688;10.078;2023-02-28T12:56:19;1.58;;;1.20;;
20391;SDS011;10355;53.688;10.078;2023-02-28T12:59:05;3.17;;;1.38;;
20391;SDS011;10355;53.688;10.078;2023-02-28T13:02:00;2.42;;;1.10;;
20391;SDS011;10355;53.688;10.078;2023-02-28T13:04:47;2.85;;;1.45;;
20391;SDS011;10355;53.688;10.078;2023-02-28T13:07:42;2.65;;;1.20;;
20391;SDS011;10355;53.688;10.078;2023-02-28T13:10:37;2.80;;;1.10;;
20391;SDS011;10355;53.688;10.078;2023-02-28T13:13:21;4.47;;;1.20;;
20391;SDS011;10355;53.688;10.078;2023-02-28T13:16:05;2.58;;;1.20;;
20391;SDS011;10355;53.688;10.078;2023-02-28T13:18:50;2.25;;;1.20;;
20391;SDS011;10355;53.688;10.078;2023-02-28T13:21:38;3.08;;;1.30;;
20391;SDS011;10355;53.688;10.078;2023-02-28T13:24:37;2.30;;;1.05;;
20391;SDS011;10355;53.688;10.078;2023-02-28T13:27:21;1.83;;;1.10;;
20391;SDS011;10355;53.688;10.078;2023-02-28T13:33:25;1.77;;;1.25;;
20391;SDS011;10355;53.688;10.078;2023-02-28T13:36:12;2.97;;;1.20;;
20391;SDS011;10355;53.688;10.078;2023-02-28T13:39:44;2.33;;;1.30;;
20391;SDS011;10355;53.688;10.078;2023-02-28T13:45:26;1.70;;;1.20;;
20391;SDS011;10355;53.688;10.078;2023-02-28T13:48:15;2.20;;;1.10;;
20391;SDS011;10355;53.688;10.078;2023-02-28T13:50:58;1.23;;;0.93;;
20391;SDS011;10355;53.688;10.078;2023-02-28T13:53:48;3.63;;;1.38;;
20391;SDS011;10355;53.688;10.078;2023-02-28T13:56:36;3.22;;;1.25;;
20391;SDS011;10355;53.688;10.078;2023-02-28T13:59:24;3.42;;;1.27;;
20391;SDS011;10355;53.688;10.078;2023-02-28T14:02:22;2.05;;;1.20;;
20391;SDS011;10355;53.688;10.078;2023-02-28T14:05:12;1.55;;;1.10;;
20391;SDS011;10355;53.688;10.078;2023-02-28T14:07:57;2.05;;;1.10;;
20391;SDS011;10355;53.688;10.078;2023-02-28T14:10:43;1.63;;;1.20;;
20391;SDS011;10355;53.688;10.078;2023-02-28T14:13:36;4.10;;;1.30;;
20391;SDS011;10355;53.688;10.078;2023-02-28T14:16:25;3.03;;;1.25;;
20391;SDS011;10355;53.688;10.078;2023-02-28T14:19:12;2.10;;;0.98;;
20391;SDS011;10355;53.688;10.078;2023-02-28T14:22:00;2.05;;;1.20;;
20391;SDS011;10355;53.688;10.078;2023-02-28T14:24:50;1.35;;;0.98;;
20391;SDS011;10355;53.688;10.078;2023-02-28T14:27:39;3.38;;;1.20;;
20391;SDS011;10355;53.688;10.078;2023-02-28T14:30:29;1.98;;;1.10;;
20391;SDS011;10355;53.688;10.078;2023-02-28T14:33:23;1.40;;;1.10;;
20391;SDS011;10355;53.688;10.078;2023-02-28T14:36:10;2.40;;;1.10;;
20391;SDS011;10355;53.688;10.078;2023-02-28T14:38:55;2.03;;;1.00;;
20391;SDS011;10355;53.688;10.078;2023-02-28T14:41:39;2.28;;;1.45;;
20391;SDS011;10355;53.688;10.078;2023-02-28T14:44:23;2.13;;;1.15;;
20391;SDS011;10355;53.688;10.078;2023-02-28T14:47:11;1.27;;;0.98;;
20391;SDS011;10355;53.688;10.078;2023-02-28T14:49:57;2.03;;;1.10;;
20391;SDS011;10355;53.688;10.078;2023-02-28T14:52:42;1.98;;;1.13;;
20391;SDS011;10355;53.688;10.078;2023-02-28T14:55:26;2.53;;;1.20;;
20391;SDS011;10355;53.688;10.078;2023-02-28T14:58:19;2.30;;;1.40;;
20391;SDS011;10355;53.688;10.078;2023-02-28T15:01:05;2.00;;;1.33;;
20391;SDS011;10355;53.688;10.078;2023-02-28T15:03:48;4.15;;;1.67;;
20391;SDS011;10355;53.688;10.078;2023-02-28T15:06:38;3.35;;;1.70;;
20391;SDS011;10355;53.688;10.078;2023-02-28T15:09:23;2.75;;;1.40;;
20391;SDS011;10355;53.688;10.078;2023-02-28T15:12:05;4.20;;;1.63;;
20391;SDS011;10355;53.688;10.078;2023-02-28T15:14:50;2.30;;;1.70;;
20391;SDS011;10355;53.688;10.078;2023-02-28T15:17:34;3.05;;;1.73;;
20391;SDS011;10355;53.688;10.078;2023-02-28T15:20:17;2.33;;;1.73;;
20391;SDS011;10355;53.688;10.078;2023-02-28T15:23:00;3.70;;;1.83;;
20391;SDS011;10355;53.688;10.078;2023-02-28T15:25:43;3.85;;;1.92;;
20391;SDS011;10355;53.688;10.078;2023-02-28T15:28:27;3.80;;;2.10;;
20391;SDS011;10355;53.688;10.078;2023-02-28T15:31:20;3.83;;;1.92;;
20391;SDS011;10355;53.688;10.078;2023-02-28T15:34:06;3.17;;;2.40;;
20391;SDS011;10355;53.688;10.078;2023-02-28T15:36:49;4.50;;;2.60;;
20391;SDS011;10355;53.688;10.078;2023-02-28T15:39:31;5.55;;;2.05;;
20391;SDS011;10355;53.688;10.078;2023-02-28T15:42:28;4.20;;;2.08;;
20391;SDS011;10355;53.688;10.078;2023-02-28T15:45:29;3.80;;;2.00;;
20391;SDS011;10355;53.688;10.078;2023-02-28T15:48:17;3.33;;;1.85;;
20391;SDS011;10355;53.688;10.078;2023-02-28T15:51:02;2.92;;;1.95;;
20391;SDS011;10355;53.688;10.078;2023-02-28T15:53:49;3.20;;;1.88;;
20391;SDS011;10355;53.688;10.078;2023-02-28T15:56:33;3.55;;;2.00;;
20391;SDS011;10355;53.688;10.078;2023-02-28T15:59:16;3.00;;;1.80;;
20391;SDS011;10355;53.688;10.078;2023-02-28T16:02:11;4.13;;;2.13;;
20391;SDS011;10355;53.688;10.078;2023-02-28T16:04:56;3.28;;;1.60;;
20391;SDS011;10355;53.688;10.078;2023-02-28T16:07:40;4.55;;;2.10;;
20391;SDS011;10355;53.688;10.078;2023-02-28T16:10:25;3.42;;;1.88;;
20391;SDS011;10355;53.688;10.078;2023-02-28T16:13:08;3.30;;;1.77;;
20391;SDS011;10355;53.688;10.078;2023-02-28T16:15:55;4.32;;;2.25;;
20391;SDS011;10355;53.688;10.078;2023-02-28T16:18:38;5.53;;;2.55;;
20391;SDS011;10355;53.688;10.078;2023-02-28T16:21:20;3.45;;;2.40;;
20391;SDS011;10355;53.688;10.078;2023-02-28T16:24:05;3.90;;;2.40;;
20391;SDS011;10355;53.688;10.078;2023-02-28T16:26:48;5.00;;;2.63;;
20391;SDS011;10355;53.688;10.078;2023-02-28T16:29:33;3.67;;;2.20;;
20391;SDS011;10355;53.688;10.078;2023-02-28T16:32:17;4.60;;;2.33;;
20391;SDS011;10355;53.688;10.078;2023-02-28T16:34:59;6.93;;;2.25;;
20391;SDS011;10355;53.688;10.078;2023-02-28T16:37:43;3.45;;;2.20;;